Time;durP1;ratioP1;P1;durP2;ratioP2;P2;SDS_P1;SDS_P2;PMS_P1;PMS_P2;Temp;Humidity;BMP_temperature;BMP_pressure;BME280_temperature;BME280_humidity;BME280_pressure;Samples;Min_cycle;Max_cycle;Signal;HPM_P1;HPM_P2
2022/06/23 00:02:30;;;;;;;12.48;8.77;;;;;;;;;;4900193;29;20048;-76
2022/06/23 00:05:20;;;;;;;19.42;9.57;;;;;;;;;;4900500;29;20045;-75
2022/06/23 00:08:12;;;;;;;17.33;9.13;;;;;;;;;;4899079;29;20057;-76
2022/06/23 00:11:00;;;;;;;14.43;8.48;;;;;;;;;;4900281;29;20064;-75
2022/06/23 00:13:44;;;;;;;17.17;9.40;;;;;;;;;;4900613;29;20049;-75
2022/06/23 00:16:30;;;;;;;21.17;10.77;;;;;;;;;;4899730;29;20044;-76
2022/06/23 00:19:16;;;;;;;11.00;8.95;;;;;;;;;;4901227;29;20052;-78
2022/06/23 00:22:02;;;;;;;33.25;19.92;;;;;;;;;;4899761;29;20048;-82
2022/06/23 00:24:48;;;;;;;17.27;9.50;;;;;;;;;;4900620;29;20052;-81
2022/06/23 00:27:40;;;;;;;13.95;9.18;;;;;;;;;;4900069;29;20403;-81
2022/06/23 00:30:38;;;;;;;16.27;10.88;;;;;;;;;;4898994;29;20044;-80
2022/06/23 00:33:44;;;;;;;19.10;10.75;;;;;;;;;;4901159;29;20044;-81
2022/06/23 00:36:38;;;;;;;17.38;10.48;;;;;;;;;;4900207;29;20395;-81
2022/06/23 00:39:36;;;;;;;21.63;12.90;;;;;;;;;;4899882;29;20060;-81
2022/06/23 00:42:33;;;;;;;18.15;11.52;;;;;;;;;;4899769;29;20048;-81
2022/06/23 00:45:27;;;;;;;17.17;11.60;;;;;;;;;;4900000;29;20048;-82
2022/06/23 00:48:25;;;;;;;23.17;11.85;;;;;;;;;;4889210;29;20053;-82
2022/06/23 00:51:26;;;;;;;17.02;10.60;;;;;;;;;;4887648;29;20052;-81
2022/06/23 00:54:19;;;;;;;19.83;11.07;;;;;;;;;;4882752;29;20060;-81
2022/06/23 00:57:15;;;;;;;18.00;11.43;;;;;;;;;;4899006;29;20041;-82
2022/06/23 01:00:17;;;;;;;16.42;11.00;;;;;;;;;;4886812;29;20491;-82
2022/06/23 01:03:05;;;;;;;18.08;11.02;;;;;;;;;;4899713;29;20518;-81
2022/06/23 01:05:59;;;;;;;20.65;11.25;;;;;;;;;;4898963;29;20045;-81
2022/06/23 01:08:55;;;;;;;18.77;10.02;;;;;;;;;;4885987;29;20052;-81
2022/06/23 01:11:47;;;;;;;25.13;10.23;;;;;;;;;;4893477;29;20041;-80
2022/06/23 01:14:47;;;;;;;16.92;10.18;;;;;;;;;;4899042;29;20048;-80
2022/06/23 01:17:40;;;;;;;17.38;9.90;;;;;;;;;;4898939;29;20049;-81
2022/06/23 01:20:35;;;;;;;15.55;9.93;;;;;;;;;;4897656;29;20045;-81
2022/06/23 01:23:44;;;;;;;19.13;10.18;;;;;;;;;;4899160;29;20048;-81
2022/06/23 01:26:54;;;;;;;15.20;9.13;;;;;;;;;;4898361;29;20412;-81
2022/06/23 01:29:47;;;;;;;16.55;9.20;;;;;;;;;;4893882;29;20048;-81
2022/06/23 01:33:04;;;;;;;15.43;9.40;;;;;;;;;;4890209;29;20048;-83
2022/06/23 01:35:57;;;;;;;19.92;9.25;;;;;;;;;;4875770;29;20052;-81
2022/06/23 01:39:20;;;;;;;13.10;8.85;;;;;;;;;;4893600;29;20048;-81
2022/06/23 01:42:24;;;;;;;13.32;8.73;;;;;;;;;;4896871;29;20646;-81
2022/06/23 01:45:16;;;;;;;13.98;9.10;;;;;;;;;;4898987;29;20060;-81
2022/06/23 01:48:15;;;;;;;12.15;9.02;;;;;;;;;;4898062;29;20371;-82
2022/06/23 01:51:01;;;;;;;13.77;9.68;;;;;;;;;;4898570;29;20052;-80
2022/06/23 01:53:47;;;;;;;13.90;9.85;;;;;;;;;;4898560;29;20052;-81
2022/06/23 01:57:06;;;;;;;15.57;9.60;;;;;;;;;;4904566;29;20053;-81
2022/06/23 02:00:30;;;;;;;14.00;9.05;;;;;;;;;;4895220;29;20394;-81
2022/06/23 02:03:20;;;;;;;15.38;8.68;;;;;;;;;;4821720;29;20046;-81
2022/06/23 02:06:18;;;;;;;21.73;9.00;;;;;;;;;;4822730;29;20051;-81
2022/06/23 02:09:21;;;;;;;16.38;12.15;;;;;;;;;;4895000;29;20044;-81
2022/06/23 02:12:35;;;;;;;35.90;24.00;;;;;;;;;;4898417;29;20041;-81
2022/06/23 02:15:26;;;;;;;15.18;9.05;;;;;;;;;;4897875;29;20044;-81
2022/06/23 02:19:19;;;;;;;13.70;9.20;;;;;;;;;;4898052;29;20400;-81
2022/06/23 02:22:16;;;;;;;23.50;15.98;;;;;;;;;;4822701;29;20050;-81
2022/06/23 02:25:17;;;;;;;16.20;10.50;;;;;;;;;;4822384;29;20050;-81
2022/06/23 02:28:35;;;;;;;17.40;10.93;;;;;;;;;;4898544;29;20064;-80
2022/06/23 02:31:47;;;;;;;16.15;11.13;;;;;;;;;;4899914;29;20399;-81
2022/06/23 02:34:49;;;;;;;16.30;10.80;;;;;;;;;;4901950;29;20052;-81
2022/06/23 02:37:52;;;;;;;19.15;11.55;;;;;;;;;;4901426;29;20491;-81
2022/06/23 02:41:00;;;;;;;43.00;28.95;;;;;;;;;;4901894;29;20403;-81
2022/06/23 02:44:02;;;;;;;19.20;12.75;;;;;;;;;;4900028;29;20048;-77
2022/06/23 02:47:06;;;;;;;17.05;10.98;;;;;;;;;;4901588;29;20048;-77
2022/06/23 02:50:27;;;;;;;19.33;11.45;;;;;;;;;;4901643;29;20049;-79
2022/06/23 02:53:16;;;;;;;18.58;12.60;;;;;;;;;;4901240;29;20439;-77
2022/06/23 02:56:33;;;;;;;17.25;12.10;;;;;;;;;;4902458;29;20056;-79
2022/06/23 02:59:58;;;;;;;16.73;12.13;;;;;;;;;;4907131;29;20060;-77
2022/06/23 03:03:09;;;;;;;18.65;12.32;;;;;;;;;;4907740;29;20048;-78
2022/06/23 03:06:08;;;;;;;21.90;12.15;;;;;;;;;;4872141;29;20503;-77
2022/06/23 03:09:05;;;;;;;18.13;11.85;;;;;;;;;;4901752;29;20056;-77
2022/06/23 03:12:00;;;;;;;16.48;12.30;;;;;;;;;;4901578;29;20052;-78
2022/06/23 03:15:07;;;;;;;17.30;12.15;;;;;;;;;;4900955;29;20052;-79
2022/06/23 03:18:25;;;;;;;26.05;12.15;;;;;;;;;;4901308;29;20052;-79
2022/06/23 03:21:45;;;;;;;24.00;12.07;;;;;;;;;;4900519;29;20052;-80
2022/06/23 03:24:37;;;;;;;17.50;7.93;;;;;;;;;;4891588;29;20490;-77
2022/06/23 03:27:30;;;;;;;25.00;14.38;;;;;;;;;;4900510;29;20052;-78
2022/06/23 03:30:33;;;;;;;20.95;12.57;;;;;;;;;;4900656;29;20061;-78
2022/06/23 03:33:39;;;;;;;44.83;27.67;;;;;;;;;;4901101;29;20070;-78
2022/06/23 03:36:39;;;;;;;22.77;14.55;;;;;;;;;;4900775;29;20049;-77
2022/06/23 03:43:08;;;;;;;26.13;13.15;;;;;;;;;;4899221;29;20056;-76
2022/06/23 03:46:21;;;;;;;20.63;13.30;;;;;;;;;;4900938;29;20044;-76
2022/06/23 03:49:26;;;;;;;19.38;12.73;;;;;;;;;;4898923;29;20497;-78
2022/06/23 03:52:37;;;;;;;19.95;12.45;;;;;;;;;;4900496;29;20048;-79
2022/06/23 03:55:26;;;;;;;21.05;12.95;;;;;;;;;;4906422;29;20056;-78
2022/06/23 03:58:45;;;;;;;23.45;13.02;;;;;;;;;;4900003;29;20056;-78
2022/06/23 04:01:40;;;;;;;19.90;12.93;;;;;;;;;;4906694;29;20410;-78
2022/06/23 04:04:43;;;;;;;19.35;11.45;;;;;;;;;;4900746;29;20056;-77
2022/06/23 04:07:28;;;;;;;18.65;12.85;;;;;;;;;;4900283;29;20053;-77
2022/06/23 04:10:20;;;;;;;18.20;11.77;;;;;;;;;;4899893;29;20045;-78
2022/06/23 04:13:15;;;;;;;19.65;12.13;;;;;;;;;;4900115;29;20052;-78
2022/06/23 04:16:04;;;;;;;16.02;12.60;;;;;;;;;;4899960;29;20044;-78
2022/06/23 04:18:52;;;;;;;16.77;12.30;;;;;;;;;;4899616;29;20040;-77
2022/06/23 04:21:43;;;;;;;17.55;12.07;;;;;;;;;;4886827;29;20048;-77
2022/06/23 04:24:29;;;;;;;22.65;12.32;;;;;;;;;;4899431;29;20052;-77
2022/06/23 04:27:27;;;;;;;17.08;11.40;;;;;;;;;;4900035;29;20498;-77
2022/06/23 04:30:22;;;;;;;18.48;11.73;;;;;;;;;;4899611;29;20049;-78
2022/06/23 04:33:16;;;;;;;16.42;11.25;;;;;;;;;;4899727;29;20053;-78
2022/06/23 04:36:02;;;;;;;18.90;11.43;;;;;;;;;;4900083;29;20048;-79
2022/06/23 04:38:57;;;;;;;19.88;11.95;;;;;;;;;;4898785;29;20045;-78
2022/06/23 04:41:45;;;;;;;;;;;;;;;;;;4900108;29;20060;-79
2022/06/23 04:44:33;;;;;;;21.05;10.88;;;;;;;;;;4899012;29;19919;-78
2022/06/23 04:47:23;;;;;;;15.02;11.05;;;;;;;;;;4905814;29;20060;-78
2022/06/23 04:50:36;;;;;;;21.73;10.60;;;;;;;;;;4899513;29;20044;-78
2022/06/23 04:53:39;;;;;;;19.40;10.70;;;;;;;;;;4898729;29;20115;-79
2022/06/23 04:56:32;;;;;;;15.70;9.75;;;;;;;;;;4899434;29;20053;-79
2022/06/23 04:59:48;;;;;;;19.20;9.90;;;;;;;;;;4898494;29;20048;-79
2022/06/23 05:02:49;;;;;;;18.88;9.85;;;;;;;;;;4899023;29;20044;-79
2022/06/23 05:05:36;;;;;;;15.95;9.48;;;;;;;;;;4899166;29;20044;-79
2022/06/23 05:08:29;;;;;;;17.90;9.25;;;;;;;;;;4903906;29;20510;-78
2022/06/23 05:11:29;;;;;;;19.63;9.33;;;;;;;;;;4898102;29;20049;-78
2022/06/23 05:14:33;;;;;;;17.88;8.77;;;;;;;;;;4897186;29;20040;-78
2022/06/23 05:17:22;;;;;;;18.35;9.00;;;;;;;;;;4898844;29;20056;-79
2022/06/23 05:20:07;;;;;;;16.27;10.93;;;;;;;;;;4898788;29;20048;-78
2022/06/23 05:22:53;;;;;;;13.45;10.23;;;;;;;;;;4898718;29;20044;-79
2022/06/23 05:25:43;;;;;;;22.30;14.07;;;;;;;;;;4899145;29;20056;-78
2022/06/23 05:28:32;;;;;;;17.42;11.38;;;;;;;;;;4882775;29;20044;-79
2022/06/23 05:31:26;;;;;;;13.52;9.90;;;;;;;;;;4899020;29;20487;-79
2022/06/23 05:34:24;;;;;;;16.17;8.13;;;;;;;;;;4898627;29;20048;-79
2022/06/23 05:37:20;;;;;;;14.10;8.32;;;;;;;;;;4898360;29;20048;-78
2022/06/23 05:40:08;;;;;;;19.65;9.93;;;;;;;;;;4898769;29;20495;-79
2022/06/23 05:43:00;;;;;;;16.05;9.35;;;;;;;;;;4898200;29;20044;-78
2022/06/23 05:45:49;;;;;;;17.15;10.23;;;;;;;;;;4894446;29;20052;-78
2022/06/23 05:48:38;;;;;;;18.90;9.65;;;;;;;;;;4898206;29;20052;-80
2022/06/23 05:51:47;;;;;;;17.85;10.68;;;;;;;;;;4898002;29;20391;-78
2022/06/23 05:54:41;;;;;;;20.70;10.68;;;;;;;;;;4905828;29;20049;-78
2022/06/23 05:57:51;;;;;;;17.25;10.38;;;;;;;;;;4904226;29;20044;-78
2022/06/23 06:00:51;;;;;;;15.50;9.85;;;;;;;;;;4898882;29;20056;-78
2022/06/23 06:04:03;;;;;;;15.75;9.48;;;;;;;;;;4904456;29;20049;-78
2022/06/23 06:06:49;;;;;;;17.38;9.80;;;;;;;;;;4901762;29;20049;-79
2022/06/23 06:09:39;;;;;;;17.27;9.13;;;;;;;;;;4908325;29;20052;-78
2022/06/23 06:12:34;;;;;;;15.40;8.68;;;;;;;;;;4908378;29;20064;-78
2022/06/23 06:15:21;;;;;;;29.65;9.52;;;;;;;;;;4902252;29;20061;-79
2022/06/23 06:18:28;;;;;;;17.75;9.00;;;;;;;;;;4901614;29;20048;-80
2022/06/23 06:21:17;;;;;;;12.15;8.85;;;;;;;;;;4902149;29;20491;-78
2022/06/23 06:24:29;;;;;;;17.50;8.88;;;;;;;;;;4902017;29;20060;-79
2022/06/23 06:27:14;;;;;;;23.00;9.93;;;;;;;;;;4902023;29;20056;-78
2022/06/23 06:30:01;;;;;;;16.17;8.85;;;;;;;;;;4901563;29;20048;-80
2022/06/23 06:32:47;;;;;;;15.80;8.38;;;;;;;;;;4902665;29;20044;-80
2022/06/23 06:35:41;;;;;;;21.00;8.55;;;;;;;;;;4908398;29;20053;-80
2022/06/23 06:38:29;;;;;;;18.17;8.18;;;;;;;;;;4901511;29;20048;-81
2022/06/23 06:41:14;;;;;;;12.85;7.78;;;;;;;;;;4901710;29;20056;-80
2022/06/23 06:44:02;;;;;;;11.82;7.28;;;;;;;;;;4901844;29;20056;-80
2022/06/23 06:46:48;;;;;;;12.02;6.25;;;;;;;;;;4901520;29;20057;-80
2022/06/23 06:49:34;;;;;;;13.77;6.90;;;;;;;;;;4901668;29;20048;-80
2022/06/23 06:52:20;;;;;;;12.25;6.80;;;;;;;;;;4907887;29;20052;-80
2022/06/23 06:55:12;;;;;;;13.65;6.90;;;;;;;;;;4901299;29;20048;-81
2022/06/23 06:58:08;;;;;;;15.65;7.07;;;;;;;;;;4907491;29;20045;-79
2022/06/23 07:01:06;;;;;;;16.65;7.05;;;;;;;;;;4907290;29;20041;-79
2022/06/23 07:03:54;;;;;;;14.60;7.63;;;;;;;;;;4897866;29;20052;-79
2022/06/23 07:06:45;;;;;;;11.00;7.25;;;;;;;;;;4896117;29;20399;-80
2022/06/23 07:09:38;;;;;;;13.57;7.07;;;;;;;;;;4901024;29;20056;-80
2022/06/23 07:12:31;;;;;;;13.93;8.20;;;;;;;;;;4901007;29;20053;-80
2022/06/23 07:15:35;;;;;;;17.27;8.45;;;;;;;;;;4900822;29;20049;-80
2022/06/23 07:18:40;;;;;;;14.23;7.55;;;;;;;;;;4901315;29;20045;-80
2022/06/23 07:21:30;;;;;;;;;;;;;;;;;;4901373;29;20064;-79
2022/06/23 07:24:28;;;;;;;14.70;7.63;;;;;;;;;;4901583;29;19919;-80
2022/06/23 07:27:48;;;;;;;12.77;7.30;;;;;;;;;;4901249;29;20045;-80
2022/06/23 07:31:12;;;;;;;13.57;7.43;;;;;;;;;;4900519;29;20056;-80
2022/06/23 07:34:04;;;;;;;15.85;6.85;;;;;;;;;;4889070;29;20049;-78
2022/06/23 07:36:57;;;;;;;11.10;7.50;;;;;;;;;;4904220;29;20060;-80
2022/06/23 07:39:42;;;;;;;13.77;7.05;;;;;;;;;;4899298;29;20466;-81
2022/06/23 07:42:50;;;;;;;14.27;7.07;;;;;;;;;;4905028;29;20044;-80
2022/06/23 07:45:41;;;;;;;11.38;7.53;;;;;;;;;;4908126;29;20052;-80
2022/06/23 07:48:29;;;;;;;15.35;7.18;;;;;;;;;;4901516;29;20052;-80
2022/06/23 07:51:15;;;;;;;11.02;7.10;;;;;;;;;;4909218;29;20053;-81
2022/06/23 07:54:01;;;;;;;14.98;7.60;;;;;;;;;;4902361;29;20048;-81
2022/06/23 07:56:47;;;;;;;15.50;6.93;;;;;;;;;;4906940;29;20048;-80
2022/06/23 07:59:57;;;;;;;15.07;7.18;;;;;;;;;;4899918;29;20060;-82
2022/06/23 08:02:47;;;;;;;12.70;7.20;;;;;;;;;;4900388;29;20049;-82
2022/06/23 08:05:42;;;;;;;10.05;6.65;;;;;;;;;;4906412;29;20048;-80
2022/06/23 08:08:32;;;;;;;14.15;6.60;;;;;;;;;;4900822;29;20048;-82
2022/06/23 08:14:30;;;;;;;29.52;8.05;;;;;;;;;;4901173;29;20049;-81
2022/06/23 08:17:17;;;;;;;19.17;7.63;;;;;;;;;;4899460;29;20503;-83
2022/06/23 08:20:03;;;;;;;15.02;7.53;;;;;;;;;;4905446;29;20048;-81
2022/06/23 08:22:52;;;;;;;21.95;7.25;;;;;;;;;;4905940;29;20049;-82
2022/06/23 08:25:38;;;;;;;16.58;8.02;;;;;;;;;;4899267;29;20049;-81
2022/06/23 08:28:24;;;;;;;18.23;7.90;;;;;;;;;;4897599;29;20355;-82
2022/06/23 08:31:09;;;;;;;18.67;8.05;;;;;;;;;;4906597;29;20056;-82
2022/06/23 08:33:56;;;;;;;15.30;7.53;;;;;;;;;;4899282;29;20048;-82
2022/06/23 08:36:49;;;;;;;25.45;8.45;;;;;;;;;;4899697;29;20052;-82
2022/06/23 08:39:51;;;;;;;15.07;8.00;;;;;;;;;;4905260;29;20045;-82
2022/06/23 08:42:57;;;;;;;14.88;7.90;;;;;;;;;;4899618;29;20057;-81
2022/06/23 08:45:54;;;;;;;15.98;8.18;;;;;;;;;;4894919;29;20053;-82
2022/06/23 08:48:53;;;;;;;16.10;7.82;;;;;;;;;;4893947;29;20052;-82
2022/06/23 08:52:09;;;;;;;20.50;8.23;;;;;;;;;;4899300;29;20048;-81
2022/06/23 08:54:59;;;;;;;17.85;7.95;;;;;;;;;;4894232;29;20060;-82
2022/06/23 08:58:11;;;;;;;11.45;6.95;;;;;;;;;;4899250;29;20049;-82
2022/06/23 09:01:05;;;;;;;14.38;8.30;;;;;;;;;;4895804;29;20049;-80
2022/06/23 09:04:00;;;;;;;15.30;7.13;;;;;;;;;;4905724;29;20060;-81
2022/06/23 09:06:52;;;;;;;14.35;8.15;;;;;;;;;;4894906;29;20045;-80
2022/06/23 09:09:58;;;;;;;18.55;8.13;;;;;;;;;;4899151;29;20044;-81
2022/06/23 09:13:01;;;;;;;13.90;7.35;;;;;;;;;;4894556;29;20048;-81
2022/06/23 09:16:01;;;;;;;18.23;7.55;;;;;;;;;;4900688;29;20052;-81
2022/06/23 09:19:03;;;;;;;13.32;7.68;;;;;;;;;;4894616;29;20048;-82
2022/06/23 09:22:07;;;;;;;16.65;7.82;;;;;;;;;;4879913;29;20483;-81
2022/06/23 09:24:58;;;;;;;12.43;6.82;;;;;;;;;;4895362;29;20049;-81
2022/06/23 09:27:59;;;;;;;12.65;7.38;;;;;;;;;;4894616;29;20049;-81
2022/06/23 09:30:55;;;;;;;20.83;7.28;;;;;;;;;;4900268;29;20061;-81
2022/06/23 09:34:05;;;;;;;12.98;7.63;;;;;;;;;;4900247;29;20410;-80
2022/06/23 09:37:21;;;;;;;23.05;8.45;;;;;;;;;;4894842;29;20048;-80
2022/06/23 09:40:19;;;;;;;27.00;7.45;;;;;;;;;;4895880;29;20044;-78
2022/06/23 09:43:29;;;;;;;17.75;7.47;;;;;;;;;;4904967;29;20063;-79
2022/06/23 09:46:35;;;;;;;18.23;7.45;;;;;;;;;;4898272;29;20056;-80
2022/06/23 09:49:35;;;;;;;21.10;7.57;;;;;;;;;;4864024;29;20486;-77
2022/06/23 09:52:57;;;;;;;14.50;7.28;;;;;;;;;;4897870;29;20052;-80
2022/06/23 09:56:08;;;;;;;20.02;7.43;;;;;;;;;;4894291;29;20052;-82
2022/06/23 09:59:11;;;;;;;11.32;7.20;;;;;;;;;;4894165;29;20060;-82
2022/06/23 10:02:13;;;;;;;12.67;5.50;;;;;;;;;;4895774;29;20076;-80
2022/06/23 10:04:59;;;;;;;11.05;5.82;;;;;;;;;;4898262;29;20048;-80
2022/06/23 10:08:03;;;;;;;10.60;6.53;;;;;;;;;;4898337;29;20060;-81
2022/06/23 10:11:04;;;;;;;15.02;7.13;;;;;;;;;;4901150;29;20052;-81
2022/06/23 10:14:15;;;;;;;14.90;8.15;;;;;;;;;;4900249;29;20045;-82
2022/06/23 10:17:19;;;;;;;12.18;7.57;;;;;;;;;;4902431;29;20052;-82
2022/06/23 10:20:42;;;;;;;11.52;8.48;;;;;;;;;;4897712;29;20115;-82
2022/06/23 10:23:30;;;;;;;11.77;8.65;;;;;;;;;;4898380;29;20041;-82
2022/06/23 10:26:32;;;;;;;16.27;10.23;;;;;;;;;;4898162;29;20044;-82
2022/06/23 10:29:44;;;;;;;14.10;10.05;;;;;;;;;;4901241;29;20068;-82
2022/06/23 10:32:46;;;;;;;14.55;10.35;;;;;;;;;;4898573;29;20491;-82
2022/06/23 10:36:01;;;;;;;17.40;11.30;;;;;;;;;;4897547;29;20127;-82
2022/06/23 10:39:09;;;;;;;16.30;10.40;;;;;;;;;;4898127;29;20041;-83
2022/06/23 10:42:28;;;;;;;23.05;12.07;;;;;;;;;;4897652;29;20053;-83
2022/06/23 10:45:13;;;;;;;15.90;11.35;;;;;;;;;;4898399;29;20499;-84
2022/06/23 10:48:20;;;;;;;18.10;11.32;;;;;;;;;;4903820;29;20053;-83
2022/06/23 10:51:42;;;;;;;20.92;12.15;;;;;;;;;;4886290;29;20045;-82
2022/06/23 10:54:36;;;;;;;17.80;11.80;;;;;;;;;;4901585;29;20061;-82
2022/06/23 10:57:42;;;;;;;13.98;11.38;;;;;;;;;;4901079;29;20048;-82
2022/06/23 11:00:36;;;;;;;13.35;11.48;;;;;;;;;;4901347;29;20399;-81
2022/06/23 11:03:51;;;;;;;14.48;10.27;;;;;;;;;;4900334;29;20044;-81
2022/06/23 11:06:51;;;;;;;13.65;9.02;;;;;;;;;;4901605;29;20041;-81
2022/06/23 11:10:25;;;;;;;13.65;9.52;;;;;;;;;;4900739;29;20041;-81
2022/06/23 11:13:39;;;;;;;14.63;9.55;;;;;;;;;;4885857;29;20056;-81
2022/06/23 11:16:43;;;;;;;15.20;10.48;;;;;;;;;;4871254;29;20052;-81
2022/06/23 11:19:38;;;;;;;16.85;11.50;;;;;;;;;;4900689;29;20054;-81
2022/06/23 11:22:42;;;;;;;17.48;10.93;;;;;;;;;;4901468;29;20045;-81
2022/06/23 11:25:56;;;;;;;13.32;9.80;;;;;;;;;;4901028;29;20048;-80
2022/06/23 11:29:06;;;;;;;13.93;9.65;;;;;;;;;;4896564;29;20049;-81
2022/06/23 11:32:03;;;;;;;14.07;9.93;;;;;;;;;;4896878;29;20048;-80
2022/06/23 11:35:01;;;;;;;12.18;9.52;;;;;;;;;;4903104;29;20041;-80
2022/06/23 11:38:06;;;;;;;13.80;10.55;;;;;;;;;;4896318;29;20045;-81
2022/06/23 11:41:16;;;;;;;12.27;9.77;;;;;;;;;;4900962;29;20053;-81
2022/06/23 11:44:25;;;;;;;15.63;10.07;;;;;;;;;;4898535;29;20040;-81
2022/06/23 11:47:25;;;;;;;19.35;10.05;;;;;;;;;;4900601;29;20064;-80
2022/06/23 11:50:20;;;;;;;14.95;9.95;;;;;;;;;;4900937;29;20040;-80
2022/06/23 11:53:15;;;;;;;18.45;10.43;;;;;;;;;;4900948;29;20052;-80
2022/06/23 11:56:32;;;;;;;14.48;10.75;;;;;;;;;;4900758;29;20490;-81
2022/06/23 11:59:36;;;;;;;17.52;10.77;;;;;;;;;;4876339;29;20057;-81
2022/06/23 12:02:21;;;;;;;20.35;10.73;;;;;;;;;;4893145;29;20419;-82
2022/06/23 12:05:23;;;;;;;13.88;9.43;;;;;;;;;;4902016;29;20402;-81
2022/06/23 12:08:11;;;;;;;13.10;9.80;;;;;;;;;;4901385;29;20052;-80
2022/06/23 12:10:57;;;;;;;12.88;9.93;;;;;;;;;;4900340;29;20044;-81
2022/06/23 12:13:43;;;;;;;13.25;9.48;;;;;;;;;;4900720;29;20052;-81
2022/06/23 12:16:30;;;;;;;12.60;8.50;;;;;;;;;;4893727;29;20056;-81
2022/06/23 12:19:18;;;;;;;13.93;9.65;;;;;;;;;;4899709;29;20045;-81
2022/06/23 12:22:27;;;;;;;13.65;8.93;;;;;;;;;;4900478;29;20044;-81
2022/06/23 12:25:24;;;;;;;12.15;9.05;;;;;;;;;;4900423;29;20044;-81
2022/06/23 12:28:33;;;;;;;12.90;8.98;;;;;;;;;;4900228;29;20049;-80
2022/06/23 12:31:47;;;;;;;16.45;9.52;;;;;;;;;;4883493;29;20053;-80
2022/06/23 12:34:44;;;;;;;14.30;9.18;;;;;;;;;;4880626;29;20403;-83
2022/06/23 12:37:40;;;;;;;12.38;9.27;;;;;;;;;;4881938;29;20069;-81
2022/06/23 12:40:31;;;;;;;25.77;9.95;;;;;;;;;;4879950;29;20048;-81
2022/06/23 12:43:36;;;;;;;19.45;10.65;;;;;;;;;;4880262;29;20045;-81
2022/06/23 12:47:00;;;;;;;15.32;10.77;;;;;;;;;;4881700;29;20053;-81
2022/06/23 12:50:10;;;;;;;20.60;11.40;;;;;;;;;;4854698;29;20045;-82
2022/06/23 12:53:10;;;;;;;20.75;12.10;;;;;;;;;;4880951;29;20056;-82
2022/06/23 12:56:29;;;;;;;16.95;10.63;;;;;;;;;;4880284;29;20056;-84
2022/06/23 12:59:38;;;;;;;17.83;10.35;;;;;;;;;;4858331;29;20404;-84
2022/06/23 13:02:27;;;;;;;21.23;11.10;;;;;;;;;;4866770;29;20476;-85
2022/06/23 13:05:45;;;;;;;16.17;11.15;;;;;;;;;;4880160;29;20053;-85
2022/06/23 13:08:39;;;;;;;16.08;10.20;;;;;;;;;;4843276;29;20049;-84
2022/06/23 13:11:33;;;;;;;17.40;10.23;;;;;;;;;;4879650;29;20057;-86
2022/06/23 13:14:28;;;;;;;13.10;10.60;;;;;;;;;;4880410;29;20053;-86
2022/06/23 13:17:48;;;;;;;18.05;11.23;;;;;;;;;;4880138;29;20041;-84
2022/06/23 13:20:36;;;;;;;15.00;10.70;;;;;;;;;;4885609;29;20056;-83
2022/06/23 13:23:35;;;;;;;15.23;11.30;;;;;;;;;;4879948;29;20049;-84
2022/06/23 13:26:29;;;;;;;17.17;11.15;;;;;;;;;;4879401;29;20486;-82
2022/06/23 13:29:20;;;;;;;15.88;11.60;;;;;;;;;;4887580;29;20056;-82
2022/06/23 13:32:32;;;;;;;17.63;11.63;;;;;;;;;;4890531;29;20040;-83
2022/06/23 13:35:30;;;;;;;21.45;13.15;;;;;;;;;;4898773;29;20049;-82
2022/06/23 13:38:27;;;;;;;20.80;13.85;;;;;;;;;;4884523;29;20049;-82
2022/06/23 13:42:06;;;;;;;18.52;12.45;;;;;;;;;;4899128;29;20052;-81
2022/06/23 13:45:12;;;;;;;16.58;11.98;;;;;;;;;;4878355;29;20052;-82
2022/06/23 13:48:04;;;;;;;32.20;14.32;;;;;;;;;;4904534;29;20056;-82
2022/06/23 13:50:59;;;;;;;18.40;11.30;;;;;;;;;;4898454;29;20056;-82
2022/06/23 13:53:51;;;;;;;15.10;12.05;;;;;;;;;;4898069;29;20056;-82
2022/06/23 13:56:45;;;;;;;23.00;12.23;;;;;;;;;;4898864;29;20048;-83
2022/06/23 13:59:45;;;;;;;18.20;12.35;;;;;;;;;;4898305;29;20044;-82
2022/06/23 14:02:48;;;;;;;18.13;13.43;;;;;;;;;;4897396;29;20053;-84
2022/06/23 14:05:42;;;;;;;17.17;12.23;;;;;;;;;;4898344;29;20048;-84
2022/06/23 14:08:39;;;;;;;17.73;13.18;;;;;;;;;;4890062;29;20049;-82
2022/06/23 14:11:33;;;;;;;26.55;14.52;;;;;;;;;;4898374;29;20056;-86
2022/06/23 14:14:37;;;;;;;18.35;13.10;;;;;;;;;;4897808;29;20060;-82
2022/06/23 14:17:44;;;;;;;21.48;13.63;;;;;;;;;;4898128;29;20049;-81
2022/06/23 14:20:48;;;;;;;20.48;13.63;;;;;;;;;;4897875;29;20491;-81
2022/06/23 14:24:01;;;;;;;17.90;13.52;;;;;;;;;;4897910;29;20048;-81
2022/06/23 14:26:57;;;;;;;18.25;12.48;;;;;;;;;;4898162;29;20052;-81
2022/06/23 14:29:45;;;;;;;18.40;12.52;;;;;;;;;;4901376;29;20056;-81
2022/06/23 14:33:00;;;;;;;20.05;12.65;;;;;;;;;;4902124;29;20053;-83
2022/06/23 14:35:51;;;;;;;20.57;11.83;;;;;;;;;;4907770;29;20048;-80
2022/06/23 14:38:54;;;;;;;15.88;10.30;;;;;;;;;;4901679;29;20033;-79
2022/06/23 14:42:07;;;;;;;16.23;9.63;;;;;;;;;;4908230;29;20483;-78
2022/06/23 14:45:03;;;;;;;16.38;9.38;;;;;;;;;;4901359;29;20044;-80
2022/06/23 14:48:15;;;;;;;13.88;9.35;;;;;;;;;;4887532;29;20049;-80
2022/06/23 14:51:08;;;;;;;14.43;9.75;;;;;;;;;;4901420;29;20045;-79
2022/06/23 14:54:29;;;;;;;15.25;8.95;;;;;;;;;;4901045;29;20041;-79
2022/06/23 14:57:22;;;;;;;15.77;8.80;;;;;;;;;;4880779;29;20052;-79
2022/06/23 15:00:31;;;;;;;14.27;8.00;;;;;;;;;;4901139;29;20056;-77
2022/06/23 15:03:47;;;;;;;9.77;7.10;;;;;;;;;;4900900;29;20044;-79
2022/06/23 15:06:50;;;;;;;16.73;8.38;;;;;;;;;;4901205;29;20414;-79
2022/06/23 15:09:48;;;;;;;15.60;8.73;;;;;;;;;;4901210;29;20045;-80
2022/06/23 15:12:49;;;;;;;15.57;8.38;;;;;;;;;;4907112;29;20052;-80
2022/06/23 15:15:56;;;;;;;16.33;9.85;;;;;;;;;;4907330;29;20052;-78
2022/06/23 15:19:03;;;;;;;16.33;9.32;;;;;;;;;;4900516;29;20060;-78
2022/06/23 15:25:46;;;;;;;16.02;8.30;;;;;;;;;;4900334;29;20052;-79
2022/06/23 15:29:00;;;;;;;12.75;7.93;;;;;;;;;;4900908;29;20052;-78
2022/06/23 15:31:51;;;;;;;13.07;6.82;;;;;;;;;;4886721;29;20048;-78
2022/06/23 15:34:55;;;;;;;12.05;7.40;;;;;;;;;;4900538;29;20052;-80
2022/06/23 15:37:50;;;;;;;11.20;7.40;;;;;;;;;;4899292;29;20053;-79
2022/06/23 15:40:41;;;;;;;8.88;7.05;;;;;;;;;;4900078;29;20494;-78
2022/06/23 15:43:39;;;;;;;9.38;6.70;;;;;;;;;;4900632;29;20057;-79
2022/06/23 15:46:32;;;;;;;10.60;6.88;;;;;;;;;;4899975;29;20402;-79
2022/06/23 15:49:54;;;;;;;12.70;7.82;;;;;;;;;;4905670;29;20045;-79
2022/06/23 15:53:01;;;;;;;14.27;9.07;;;;;;;;;;4900305;29;20052;-79
2022/06/23 15:55:57;;;;;;;11.13;8.68;;;;;;;;;;4900107;29;20395;-79
2022/06/23 15:59:07;;;;;;;10.90;8.40;;;;;;;;;;4906614;29;20060;-78
2022/06/23 16:02:32;;;;;;;14.13;9.52;;;;;;;;;;4899529;29;20057;-77
2022/06/23 16:05:21;;;;;;;13.60;8.68;;;;;;;;;;4906335;29;20040;-78
2022/06/23 16:08:10;;;;;;;15.40;8.48;;;;;;;;;;4899904;29;20049;-78
2022/06/23 16:11:12;;;;;;;14.50;8.60;;;;;;;;;;4899261;29;20044;-78
2022/06/23 16:14:04;;;;;;;16.90;9.23;;;;;;;;;;4899266;29;20056;-79
2022/06/23 16:17:02;;;;;;;9.48;6.55;;;;;;;;;;4899461;29;20491;-76
2022/06/23 16:19:52;;;;;;;9.65;7.03;;;;;;;;;;4899672;29;20053;-78
2022/06/23 16:22:42;;;;;;;9.55;6.60;;;;;;;;;;4899659;29;20449;-77
2022/06/23 16:25:40;;;;;;;12.35;7.43;;;;;;;;;;4899825;29;20052;-76
2022/06/23 16:28:36;;;;;;;11.05;7.45;;;;;;;;;;4899922;29;20040;-77
2022/06/23 16:31:44;;;;;;;11.60;6.55;;;;;;;;;;4899173;29;20056;-78
2022/06/23 16:34:33;;;;;;;10.48;6.80;;;;;;;;;;4898527;29;20068;-78
2022/06/23 16:37:29;;;;;;;9.57;7.50;;;;;;;;;;4898362;29;20048;-78
2022/06/23 16:40:28;;;;;;;13.65;9.00;;;;;;;;;;4898915;29;20056;-80
2022/06/23 16:43:19;;;;;;;16.63;9.23;;;;;;;;;;4899385;29;20518;-78
2022/06/23 16:46:32;;;;;;;15.88;9.13;;;;;;;;;;4898356;29;20048;-77
2022/06/23 16:49:27;;;;;;;13.65;9.60;;;;;;;;;;4898484;29;20053;-80
2022/06/23 16:52:35;;;;;;;15.23;9.75;;;;;;;;;;4898522;29;20056;-80
2022/06/23 16:55:53;;;;;;;17.85;10.50;;;;;;;;;;4899108;29;20052;-77
2022/06/23 16:58:42;;;;;;;16.75;10.23;;;;;;;;;;4898519;29;20052;-78
2022/06/23 17:01:36;;;;;;;16.92;10.40;;;;;;;;;;4897909;29;20052;-78
2022/06/23 17:04:28;;;;;;;16.70;10.93;;;;;;;;;;4897127;29;20278;-80
2022/06/23 17:07:22;;;;;;;15.90;10.98;;;;;;;;;;4897576;29;20053;-80
2022/06/23 17:10:44;;;;;;;14.57;11.20;;;;;;;;;;4898614;29;20499;-79
2022/06/23 17:13:47;;;;;;;14.40;9.02;;;;;;;;;;4898670;29;20399;-80
2022/06/23 17:16:37;;;;;;;16.08;9.32;;;;;;;;;;4905151;29;20049;-78
2022/06/23 17:19:30;;;;;;;15.57;8.90;;;;;;;;;;4897635;29;20040;-79
2022/06/23 17:22:31;;;;;;;17.50;9.98;;;;;;;;;;4897529;29;20044;-80
2022/06/23 17:25:37;;;;;;;11.07;8.82;;;;;;;;;;4904326;29;20053;-78
2022/06/23 17:28:43;;;;;;;13.02;10.20;;;;;;;;;;4900424;29;20057;-79
2022/06/23 17:31:41;;;;;;;13.15;9.68;;;;;;;;;;4899703;29;20112;-79
2022/06/23 17:34:31;;;;;;;15.88;10.73;;;;;;;;;;4899646;29;20044;-78
2022/06/23 17:37:36;;;;;;;15.70;10.40;;;;;;;;;;4898919;29;20049;-78
2022/06/23 17:43:45;;;;;;;13.10;10.25;;;;;;;;;;4898645;29;20056;-78
2022/06/23 17:46:42;;;;;;;12.20;9.38;;;;;;;;;;4899973;29;20044;-80
2022/06/23 17:49:36;;;;;;;12.95;9.68;;;;;;;;;;4898941;29;20419;-78